Time;durP1;ratioP1;P1;durP2;ratioP2;P2;SDS_P1;SDS_P2;PMS_P1;PMS_P2;Temp;Humidity;BMP_temperature;BMP_pressure;BME280_temperature;BME280_humidity;BME280_pressure;Samples;Min_cycle;Max_cycle;Signal;HPM_P1;HPM_P2
2022/10/04 00:02:01;;;;;;;;;15.25;14.25;;;;;17.39;58.90;98549.53;4947086;28;102498;-67
2022/10/04 00:04:38;;;;;;;;;14.25;12.75;;;;;17.39;58.76;98544.06;4943289;28;102435;-67
2022/10/04 00:07:12;;;;;;;;;14.25;13.00;;;;;17.37;58.86;98541.59;4937390;28;103774;-67
2022/10/04 00:09:45;;;;;;;;;12.00;10.00;;;;;17.37;59.16;98538.03;4925433;28;109372;-67
2022/10/04 00:12:39;;;;;;;;;13.00;12.00;;;;;17.36;58.88;98537.19;4940430;28;102586;-67
2022/10/04 00:15:25;;;;;;;;;13.25;11.00;;;;;17.36;58.51;98534.47;4907122;28;102441;-66
2022/10/04 00:18:23;;;;;;;;;13.00;11.25;;;;;17.35;58.86;98535.53;4923949;28;103671;-67
2022/10/04 00:20:51;;;;;;;;;13.00;10.00;;;;;17.36;58.57;98544.56;4903529;28;108967;-67
2022/10/04 00:23:30;;;;;;;;;10.00;10.00;;;;;17.34;58.67;98541.22;4940646;28;102748;-67
2022/10/04 00:25:58;;;;;;;;;9.00;9.00;;;;;17.34;58.65;98535.75;4937236;28;102379;-67
2022/10/04 00:28:25;;;;;;;;;15.00;10.00;;;;;17.34;58.45;98535.75;4924701;28;102472;-67
2022/10/04 00:31:16;;;;;;;;;12.00;10.50;;;;;17.33;59.12;98537.69;4942832;28;104040;-67
2022/10/04 00:33:48;;;;;;;;;13.00;11.67;;;;;17.33;58.82;98531.41;4929593;28;102108;-67
2022/10/04 00:36:24;;;;;;;;;12.50;11.00;;;;;17.34;58.70;98530.28;4941357;28;102548;-67
2022/10/04 00:39:03;;;;;;;;;8.50;8.25;;;;;17.34;58.14;98524.81;4937856;28;102632;-67
2022/10/04 00:41:38;;;;;;;;;12.50;10.75;;;;;17.33;58.50;98528.66;4941127;28;103794;-67
2022/10/04 00:44:05;;;;;;;;;9.75;9.75;;;;;17.33;58.80;98528.66;4942815;28;102589;-67
2022/10/04 00:46:32;;;;;;;;;14.00;13.50;;;;;17.31;58.35;98522.59;4905266;28;102494;-68
2022/10/04 00:49:00;;;;;;;;;10.33;9.00;;;;;17.31;58.44;98517.97;4918863;28;102185;-68
2022/10/04 00:51:33;;;;;;;;;11.33;10.00;;;;;17.32;59.17;98527.00;4908425;28;103989;-67
2022/10/04 00:54:06;;;;;;;;;10.00;9.25;;;;;17.31;58.71;98517.13;4896743;28;102676;-67
2022/10/04 00:56:40;;;;;;;;;11.75;10.75;;;;;17.32;58.31;98513.34;4920849;28;102526;-67
2022/10/04 00:59:51;;;;;;;;;12.00;10.75;;;;;17.31;59.08;98519.88;4916705;28;102577;-66
2022/10/04 01:02:30;;;;;;;;;12.50;11.00;;;;;17.30;59.00;98518.19;4828368;28;108810;-67
2022/10/04 01:05:00;;;;;;;;;11.00;10.00;;;;;17.30;58.31;98526.41;4914554;28;102878;-67
2022/10/04 01:07:45;;;;;;;;;14.50;10.00;;;;;17.30;58.89;98520.94;4909627;28;102411;-67
2022/10/04 01:10:40;;;;;;;;;11.75;10.00;;;;;17.29;58.79;98522.84;4911245;28;102451;-67
2022/10/04 01:13:41;;;;;;;;;11.50;10.50;;;;;17.27;59.13;98518.69;4886148;28;108888;-67
2022/10/04 01:16:38;;;;;;;;;10.00;9.50;;;;;17.27;58.32;98524.16;4903637;28;102500;-67
2022/10/04 01:19:32;;;;;;;;;11.50;10.00;;;;;17.27;58.35;98518.69;4904481;28;103125;-67
2022/10/04 01:22:45;;;;;;;;;10.50;9.75;;;;;17.27;58.22;98524.16;4923709;28;102517;-67
2022/10/04 01:25:41;;;;;;;;;11.00;10.00;;;;;17.27;58.24;98518.69;4899930;28;107834;-68
2022/10/04 01:28:08;;;;;;;;;9.00;9.00;;;;;17.28;59.03;98514.91;4923588;28;102479;-67
2022/10/04 01:30:35;;;;;;;;;11.00;10.00;;;;;17.26;58.24;98517.88;4924095;28;102890;-67
2022/10/04 01:33:05;;;;;;;;;9.00;9.00;;;;;17.27;58.34;98524.16;4923891;28;102270;-68
2022/10/04 01:35:34;;;;;;;;;10.00;8.25;;;;;17.26;58.50;98517.88;4923455;28;108962;-68
2022/10/04 01:38:07;;;;;;;;;10.25;10.25;;;;;17.27;58.45;98524.16;4888049;28;102584;-68
2022/10/04 01:40:35;;;;;;;;;10.00;7.33;;;;;17.26;58.70;98517.03;4903577;28;102323;-67
2022/10/04 01:43:05;;;;;;;;;11.00;11.00;;;;;17.26;58.28;98512.41;4904422;28;102513;-67
2022/10/04 01:45:37;;;;;;;;;10.00;10.00;;;;;17.25;58.28;98527.13;4910328;28;109224;-67
2022/10/04 01:48:15;;;;;;;;;11.00;9.50;;;;;17.25;58.52;98515.38;4920393;28;102124;-68
2022/10/04 01:50:58;;;;;;;;;9.67;8.67;;;;;17.24;58.92;98513.75;4903193;28;102180;-67
2022/10/04 01:53:29;;;;;;;;;11.00;8.33;;;;;17.22;58.12;98511.25;4923525;28;102478;-67
2022/10/04 01:56:04;;;;;;;;;12.00;10.25;;;;;17.23;58.35;98509.34;4932380;28;103996;-68
2022/10/04 01:58:57;;;;;;;;;10.00;9.00;;;;;17.22;58.95;98504.94;4901707;28;102192;-68
2022/10/04 02:01:31;;;;;;;;;10.50;10.00;;;;;17.20;58.37;98499.72;4910186;28;102627;-68
2022/10/04 02:04:04;;;;;;;;;13.50;10.50;;;;;17.21;58.85;98508.75;4905590;28;102303;-67
2022/10/04 02:06:36;;;;;;;;;9.00;8.67;;;;;17.21;58.45;98514.22;4915111;28;108971;-68
2022/10/04 02:09:08;;;;;;;;;10.00;10.00;;;;;17.20;58.98;98518.84;4893307;28;102278;-67
2022/10/04 02:11:36;;;;;;;;;9.00;8.33;;;;;17.21;58.48;98516.94;4925328;28;102484;-67
2022/10/04 02:14:04;;;;;;;;;8.33;7.33;;;;;17.21;58.27;98512.31;4919575;28;102793;-67
2022/10/04 02:16:34;;;;;;;;;9.67;8.00;;;;;17.21;58.95;98511.47;4926843;28;104240;-67
2022/10/04 02:19:03;;;;;;;;;10.33;9.00;;;;;17.21;58.92;98511.47;4903337;28;102368;-68
2022/10/04 02:21:30;;;;;;;;;6.67;6.00;;;;;17.21;59.30;98514.22;4904442;28;102217;-67
2022/10/04 02:23:57;;;;;;;;;9.67;8.33;;;;;17.22;58.11;98518.59;4901682;28;102561;-67
2022/10/04 02:26:24;;;;;;;;;9.33;8.33;;;;;17.21;58.19;98509.56;4909390;28;104085;-68
2022/10/04 02:28:51;;;;;;;;;6.00;5.00;;;;;17.21;58.21;98514.22;4933241;28;102299;-67
2022/10/04 02:34:06;;;;;;;;;10.25;9.00;;;;;17.21;58.68;98517.78;4913142;28;107283;-68
2022/10/04 02:36:33;;;;;;;;;8.33;7.33;;;;;17.20;58.76;98513.38;4893688;28;108916;-67
2022/10/04 02:39:06;;;;;;;;;10.00;9.67;;;;;17.20;58.65;98518.03;4896581;28;102580;-67
2022/10/04 02:41:36;;;;;;;;;8.67;7.33;;;;;17.19;58.49;98516.38;4902905;28;103547;-68
2022/10/04 02:44:16;;;;;;;;;8.00;7.67;;;;;17.19;58.63;98521.84;4913298;28;102401;-67
2022/10/04 02:46:48;;;;;;;;;8.33;8.33;;;;;17.19;58.39;98516.38;4925039;28;108924;-67
2022/10/04 02:49:37;;;;;;;;;7.00;7.00;;;;;17.17;58.88;98521.25;4939767;28;103216;-67
2022/10/04 02:52:06;;;;;;;;;6.33;6.00;;;;;17.16;58.79;98511.38;4925044;28;102262;-68
2022/10/04 02:54:51;;;;;;;;;7.33;7.33;;;;;17.16;58.60;98505.91;4914181;28;103361;-67
2022/10/04 02:57:19;;;;;;;;;8.00;7.00;;;;;17.16;58.21;98514.13;4938970;28;109019;-67
2022/10/04 02:59:46;;;;;;;;;7.67;7.00;;;;;17.16;58.31;98512.22;4925932;28;106553;-67
2022/10/04 03:02:31;;;;;;;;;8.33;7.00;;;;;17.16;58.90;98508.66;4942030;28;102528;-67
2022/10/04 03:05:04;;;;;;;;;7.33;7.33;;;;;17.16;58.47;98504.00;4949871;28;102500;-67
2022/10/04 03:07:31;;;;;;;;;8.67;7.33;;;;;17.17;59.29;98510.31;4917937;28;104296;-67
2022/10/04 03:09:59;;;;;;;;;7.33;7.33;;;;;17.16;58.40;98512.22;4938075;28;102483;-67
2022/10/04 03:12:26;;;;;;;;;8.00;6.33;;;;;17.17;58.93;98510.31;4917976;28;104016;-67
2022/10/04 03:14:53;;;;;;;;;7.00;6.33;;;;;17.16;58.73;98506.75;4949529;28;102519;-68
2022/10/04 03:17:20;;;;;;;;;6.33;6.33;;;;;17.16;58.98;98511.38;4925455;28;104109;-68
2022/10/04 03:19:47;;;;;;;;;10.67;7.00;;;;;17.17;58.85;98513.03;4948647;28;102939;-68
2022/10/04 03:22:14;;;;;;;;;8.00;7.33;;;;;17.17;58.69;98521.25;4934657;28;102525;-67
2022/10/04 03:24:46;;;;;;;;;8.00;7.00;;;;;17.16;59.21;98514.13;4942498;28;102496;-67
2022/10/04 03:27:25;;;;;;;;;7.67;6.67;;;;;17.15;59.09;98512.47;4941761;28;104013;-67
2022/10/04 03:29:52;;;;;;;;;6.67;6.33;;;;;17.15;58.25;98509.75;4921193;28;102213;-67
2022/10/04 03:32:24;;;;;;;;;7.67;7.67;;;;;17.14;58.67;98517.13;4935695;28;102507;-67
2022/10/04 03:34:56;;;;;;;;;7.67;6.00;;;;;17.14;58.50;98513.53;4941516;28;102099;-68
2022/10/04 03:37:23;;;;;;;;;7.67;7.67;;;;;17.13;58.25;98517.34;4902836;28;104174;-67
2022/10/04 03:39:54;;;;;;;;;7.00;6.33;;;;;17.10;58.15;98512.38;4927580;28;102788;-68
2022/10/04 03:42:23;;;;;;;;;7.00;7.00;;;;;17.10;58.00;98506.91;4920927;28;102799;-68
2022/10/04 03:44:52;;;;;;;;;6.00;5.33;;;;;17.10;58.63;98513.22;4924350;28;102245;-67
2022/10/04 03:47:31;;;;;;;;;5.00;5.00;;;;;17.11;59.09;98508.59;4915673;28;104085;-67
2022/10/04 03:50:01;;;;;;;;;7.00;6.00;;;;;17.12;58.31;98510.22;4927340;28;102694;-68
2022/10/04 03:52:33;;;;;;;;;5.33;5.00;;;;;17.10;58.51;98506.91;4921761;28;102105;-68
2022/10/04 03:55:01;;;;;;;;;8.50;7.00;;;;;17.11;58.77;98508.59;4925116;28;102443;-68
2022/10/04 03:57:28;;;;;;;;;6.00;5.00;;;;;17.11;58.11;98514.84;4917617;28;104111;-67
2022/10/04 03:59:56;;;;;;;;;7.67;6.67;;;;;17.13;58.83;98517.34;4918142;28;102364;-67
2022/10/04 04:02:32;;;;;;;;;7.67;7.00;;;;;17.12;58.60;98516.50;4933467;28;102202;-67
2022/10/04 04:05:52;;;;;;;;;8.33;8.00;;;;;17.12;58.49;98526.59;4939063;28;102360;-68
2022/10/04 04:08:35;;;;;;;;;5.33;5.33;;;;;17.12;57.94;98521.97;4924897;28;108449;-67
2022/10/04 04:11:03;;;;;;;;;8.00;7.00;;;;;17.12;58.82;98532.91;4947483;28;102290;-68
2022/10/04 04:13:44;;;;;;;;;6.00;6.00;;;;;17.13;57.99;98533.75;4938040;28;102368;-67
2022/10/04 04:16:11;;;;;;;;;7.33;6.33;;;;;17.11;57.87;98530.44;4913980;28;103092;-67
2022/10/04 04:18:40;;;;;;;;;7.00;6.67;;;;;17.10;58.41;98535.06;4934391;28;104086;-67
2022/10/04 04:21:07;;;;;;;;;6.67;6.00;;;;;17.10;58.87;98536.97;4925924;28;102223;-66
2022/10/04 04:23:38;;;;;;;;;4.33;4.33;;;;;17.10;58.46;98536.97;4930971;28;103847;-67
2022/10/04 04:26:30;;;;;;;;;5.00;4.00;;;;;17.10;58.69;98540.53;4929733;28;102255;-67
2022/10/04 04:29:17;;;;;;;;;6.00;5.00;;;;;17.08;58.63;98541.84;4941431;28;109638;-68
2022/10/04 04:31:53;;;;;;;;;5.33;5.33;;;;;17.07;58.05;98551.09;4929219;28;103342;-67
2022/10/04 04:34:23;;;;;;;;;8.00;6.00;;;;;17.07;58.15;98545.63;4929358;28;102502;-68
2022/10/04 04:36:55;;;;;;;;;5.00;4.00;;;;;17.07;58.11;98542.91;4925165;28;102233;-67
2022/10/04 04:39:42;;;;;;;;;7.00;5.33;;;;;17.07;58.51;98551.09;4948548;28;104156;-69
2022/10/04 04:42:09;;;;;;;;;7.00;6.00;;;;;17.07;59.28;98556.56;4946980;28;102477;-66
2022/10/04 04:44:50;;;;;;;;;7.00;7.00;;;;;17.07;59.20;98551.94;4931929;28;102634;-68
2022/10/04 04:47:32;;;;;;;;;8.00;7.00;;;;;17.08;58.62;98552.75;4916344;28;102386;-67
2022/10/04 04:50:17;;;;;;;;;7.00;7.00;;;;;17.07;58.75;98562.84;4910520;28;104652;-67
2022/10/04 04:52:51;;;;;;;;;6.00;6.00;;;;;17.07;58.51;98565.59;4926974;28;102524;-67
2022/10/04 04:55:20;;;;;;;;;5.33;5.33;;;;;17.07;58.54;98567.50;4904723;28;102416;-67
2022/10/04 04:57:52;;;;;;;;;8.00;6.00;;;;;17.06;57.87;98572.16;4902193;28;102392;-67
2022/10/04 05:00:22;;;;;;;;;7.00;6.00;;;;;17.07;58.42;98578.41;4899670;28;104099;-67
2022/10/04 05:02:50;;;;;;;;;6.00;5.33;;;;;17.06;59.21;98577.63;4907575;28;102458;-67
2022/10/04 05:05:34;;;;;;;;;3.67;3.67;;;;;17.05;58.24;98589.59;4918557;28;102196;-67
2022/10/04 05:08:09;;;;;;;;;6.67;5.00;;;;;17.04;58.38;98587.94;4908596;28;102280;-67
2022/10/04 05:10:36;;;;;;;;;6.00;6.00;;;;;17.03;59.21;98589.00;4918688;28;108572;-67
2022/10/04 05:13:05;;;;;;;;;7.67;5.33;;;;;17.03;58.40;98599.09;4918260;28;102169;-67
2022/10/04 05:15:36;;;;;;;;;6.00;6.00;;;;;17.01;57.99;98601.25;4911407;28;102325;-67
2022/10/04 05:18:25;;;;;;;;;7.00;6.00;;;;;17.01;58.79;98595.81;4908253;28;102488;-67
2022/10/04 05:20:52;;;;;;;;;4.33;4.00;;;;;17.02;58.95;98600.19;4922889;28;108833;-67
2022/10/04 05:23:19;;;;;;;;;6.00;6.00;;;;;17.01;59.24;98595.81;4919181;28;102524;-67
2022/10/04 05:25:47;;;;;;;;;5.00;5.00;;;;;17.02;58.33;98600.19;4901823;28;102513;-67
2022/10/04 05:28:14;;;;;;;;;6.33;6.00;;;;;17.02;58.55;98603.72;4918772;28;102177;-67
2022/10/04 05:30:41;;;;;;;;;5.00;5.00;;;;;17.02;58.23;98609.19;4925426;28;104046;-67
2022/10/04 05:33:13;;;;;;;;;4.00;4.00;;;;;17.02;58.33;98611.13;4922583;28;102332;-66
2022/10/04 05:35:56;;;;;;;;;5.00;5.00;;;;;17.02;58.31;98613.84;4921905;28;102346;-66
2022/10/04 05:38:41;;;;;;;;;7.00;5.67;;;;;17.02;58.94;98619.31;4927566;28;102348;-67
2022/10/04 05:41:13;;;;;;;;;5.00;5.00;;;;;17.02;57.98;98622.84;4917636;28;109146;-67
2022/10/04 05:43:45;;;;;;;;;6.33;6.00;;;;;17.04;58.64;98630.81;4919107;28;102572;-66
2022/10/04 05:46:17;;;;;;;;;6.33;6.00;;;;;17.04;57.73;98630.81;4920589;28;102016;-67
2022/10/04 05:48:46;;;;;;;;;6.67;5.00;;;;;17.02;58.53;98628.31;4936337;28;102211;-66
2022/10/04 05:51:29;;;;;;;;;7.00;5.00;;;;;17.02;58.43;98641.19;4919027;28;104067;-67
2022/10/04 05:53:58;;;;;;;;;4.00;4.00;;;;;17.01;58.18;98644.97;4921522;28;103245;-67
2022/10/04 05:56:58;;;;;;;;;4.33;4.33;;;;;17.01;59.12;98644.97;4947428;28;102154;-67
2022/10/04 05:59:34;;;;;;;;;6.00;6.00;;;;;17.00;59.16;98646.88;4943675;28;102161;-67
2022/10/04 06:02:37;;;;;;;;;5.33;5.00;;;;;17.00;58.79;98643.31;4922457;28;104185;-67
2022/10/04 06:05:11;;;;;;;;;5.00;5.00;;;;;16.99;58.48;98649.84;4930285;28;102337;-67
2022/10/04 06:07:42;;;;;;;;;4.00;4.00;;;;;16.97;58.70;98650.09;4941954;28;102437;-67
2022/10/04 06:10:25;;;;;;;;;7.33;5.67;;;;;16.97;58.07;98660.19;4937050;28;102641;-66
2022/10/04 06:13:34;;;;;;;;;4.33;3.67;;;;;16.98;58.34;98653.63;4937286;28;105525;-67
2022/10/04 06:16:11;;;;;;;;;4.00;4.00;;;;;16.98;58.33;98650.91;4930235;28;102581;-67
2022/10/04 06:18:44;;;;;;;;;4.00;3.33;;;;;17.00;58.41;98667.88;4935784;28;102492;-64
2022/10/04 06:21:30;;;;;;;;;5.00;5.00;;;;;17.00;58.70;98673.34;4920913;28;102494;-67
2022/10/04 06:24:00;;;;;;;;;4.00;4.00;;;;;17.00;58.54;98671.44;4919150;28;104214;-67
2022/10/04 06:26:32;;;;;;;;;4.00;4.00;;;;;17.01;58.73;98672.28;4944007;28;102400;-67
2022/10/04 06:29:02;;;;;;;;;4.00;3.67;;;;;17.01;58.06;98678.59;4933332;28;102189;-67
2022/10/04 06:32:13;;;;;;;;;5.00;5.00;;;;;17.02;58.54;98679.41;4926952;28;102754;-67
2022/10/04 06:34:46;;;;;;;;;4.00;4.00;;;;;17.02;58.79;98693.88;4887310;28;108958;-67
2022/10/04 06:37:35;;;;;;;;;4.67;4.00;;;;;17.01;58.78;98688.69;4876503;28;102249;-67
2022/10/04 06:40:20;;;;;;;;;5.00;4.00;;;;;17.01;58.23;98697.72;4899397;28;102230;-67
2022/10/04 06:42:56;;;;;;;;;6.67;5.00;;;;;17.01;58.98;98689.50;4925776;28;102491;-67
2022/10/04 06:45:48;;;;;;;;;4.00;3.33;;;;;17.01;58.22;98691.41;4906464;28;104257;-67
2022/10/04 06:48:15;;;;;;;;;4.00;4.00;;;;;17.01;58.21;98694.16;4945329;28;102359;-67
2022/10/04 06:50:59;;;;;;;;;5.00;3.67;;;;;17.00;58.63;98696.03;4937797;28;101856;-67
2022/10/04 06:53:32;;;;;;;;;4.00;4.00;;;;;17.01;58.81;98705.06;4919454;28;102209;-67
2022/10/04 06:56:20;;;;;;;;;4.00;4.00;;;;;16.99;58.29;98704.47;4933663;28;104079;-67
2022/10/04 06:59:12;;;;;;;;;3.00;3.00;;;;;17.00;57.99;98708.88;4925923;28;102489;-67
2022/10/04 07:01:50;;;;;;;;;4.00;4.00;;;;;17.01;58.54;98705.06;4931383;28;101962;-66
2022/10/04 07:04:27;;;;;;;;;4.33;4.33;;;;;17.00;58.30;98708.88;4925342;28;102211;-66
2022/10/04 07:07:25;;;;;;;;;4.00;4.00;;;;;17.02;57.62;98712.19;4916443;28;104221;-67
2022/10/04 07:10:39;;;;;;;;;4.67;4.00;;;;;17.02;58.54;98712.19;4943508;28;102126;-66
2022/10/04 07:13:15;;;;;;;;;6.00;4.67;;;;;17.03;58.27;98719.31;4923487;28;102748;-67
2022/10/04 07:15:46;;;;;;;;;4.00;3.67;;;;;17.03;58.56;98722.03;4925160;28;102125;-66
2022/10/04 07:18:18;;;;;;;;;4.00;4.00;;;;;17.03;58.80;98724.78;4904981;28;104153;-67
2022/10/04 07:20:45;;;;;;;;;3.00;3.00;;;;;17.03;58.89;98719.31;4911157;28;102256;-67
2022/10/04 07:23:13;;;;;;;;;4.00;4.00;;;;;17.04;58.20;98726.44;4924441;28;102211;-66
2022/10/04 07:25:44;;;;;;;;;4.00;4.00;;;;;17.03;58.38;98735.69;4922659;28;102610;-66
2022/10/04 07:31:23;;;;;;;;;4.67;4.33;;;;;17.03;57.71;98736.53;4920563;28;102591;-67
2022/10/04 07:33:53;;;;;;;;;5.00;5.00;;;;;17.04;58.63;98737.38;4926579;28;102435;-67
2022/10/04 07:36:23;;;;;;;;;4.00;3.33;;;;;17.03;58.12;98752.09;4940010;28;102475;-67
2022/10/04 07:38:52;;;;;;;;;3.00;3.00;;;;;17.03;58.46;98742.00;4930957;28;104147;-67
2022/10/04 07:41:36;;;;;;;;;4.00;4.00;;;;;17.03;58.01;98741.16;4934635;28;104617;-67
2022/10/04 07:44:14;;;;;;;;;4.00;4.00;;;;;17.04;58.12;98745.56;4928464;28;102424;-67
2022/10/04 07:46:41;;;;;;;;;4.00;3.67;;;;;17.02;57.65;98748.53;4903060;28;102482;-66
2022/10/04 07:49:16;;;;;;;;;4.33;4.00;;;;;17.04;58.50;98745.56;4944605;28;104045;-67
2022/10/04 07:52:07;;;;;;;;;3.00;3.00;;;;;17.04;58.35;98757.31;4937610;28;102343;-66
2022/10/04 07:55:17;;;;;;;;;4.00;4.00;;;;;17.04;58.16;98751.03;4929826;28;102241;-67
2022/10/04 07:57:58;;;;;;;;;2.00;2.00;;;;;17.05;59.03;98755.44;4907603;28;102634;-66
2022/10/04 08:00:48;;;;;;;;;3.33;3.00;;;;;17.05;57.90;98760.88;4938816;28;104064;-67
2022/10/04 08:03:46;;;;;;;;;5.00;4.00;;;;;17.06;57.81;98757.09;4909112;28;101999;-67
2022/10/04 08:06:27;;;;;;;;;3.33;3.00;;;;;17.05;58.35;98767.19;4939096;28;102374;-66
2022/10/04 08:09:06;;;;;;;;;4.00;3.00;;;;;17.05;57.91;98772.66;4934020;28;102363;-67
2022/10/04 08:11:51;;;;;;;;;3.33;3.33;;;;;17.05;58.17;98766.34;4945716;28;104030;-67
2022/10/04 08:14:33;;;;;;;;;4.00;3.00;;;;;17.06;58.52;98768.03;4942965;28;102271;-67
2022/10/04 08:17:10;;;;;;;;;4.67;3.00;;;;;17.05;57.98;98767.19;4941109;28;102409;-67
2022/10/04 08:19:59;;;;;;;;;4.00;4.00;;;;;17.06;58.61;98768.03;4940170;28;102538;-66
2022/10/04 08:22:33;;;;;;;;;3.67;3.67;;;;;17.06;58.17;98776.22;4935417;28;104348;-67
2022/10/04 08:25:37;;;;;;;;;2.00;2.00;;;;;17.05;58.45;98780.00;4934822;28;102555;-66
2022/10/04 08:31:17;;;;;;;;;3.33;3.33;;;;;17.06;58.68;98778.94;4942820;28;102261;-67
2022/10/04 08:33:52;;;;;;;;;5.33;4.33;;;;;17.05;58.12;98778.13;4936416;28;110120;-67
2022/10/04 08:36:46;;;;;;;;;5.00;3.00;;;;;17.06;58.43;98781.69;4920020;28;107247;-67
2022/10/04 08:39:48;;;;;;;;;4.00;4.00;;;;;17.06;58.36;98785.25;4945136;28;102451;-67
2022/10/04 08:42:23;;;;;;;;;3.67;3.00;;;;;17.07;58.43;98791.53;4934165;28;102198;-67
2022/10/04 08:45:13;;;;;;;;;4.00;3.33;;;;;17.07;58.39;98786.06;4936892;28;104023;-67
2022/10/04 08:48:23;;;;;;;;;3.33;3.33;;;;;17.08;58.25;98793.19;4930206;28;102182;-66
2022/10/04 08:51:21;;;;;;;;;3.00;3.00;;;;;17.09;58.47;98797.59;4906401;28;102488;-67
2022/10/04 08:53:56;;;;;;;;;3.33;3.33;;;;;17.09;58.06;98800.31;4898428;28;102417;-67
2022/10/04 08:57:00;;;;;;;;;3.67;3.00;;;;;17.10;58.41;98796.53;4938026;28;104071;-67
2022/10/04 09:00:03;;;;;;;;;3.67;3.67;;;;;17.09;58.10;98792.97;4938496;28;102408;-67
2022/10/04 09:03:04;;;;;;;;;4.00;4.00;;;;;17.10;58.82;98793.78;4937993;28;102086;-67
2022/10/04 09:05:39;;;;;;;;;5.00;3.00;;;;;17.09;57.95;98798.44;4935700;28;102544;-67
2022/10/04 09:08:34;;;;;;;;;3.00;3.00;;;;;17.09;58.95;98801.16;4932981;28;108811;-67
2022/10/04 09:11:20;;;;;;;;;3.00;2.33;;;;;17.09;58.53;98806.63;4934847;28;103037;-67
2022/10/04 09:14:02;;;;;;;;;4.00;4.00;;;;;17.09;58.06;98798.44;4933902;28;102382;-67
2022/10/04 09:17:08;;;;;;;;;2.33;2.00;;;;;17.09;58.31;98794.84;4936675;28;102668;-67
2022/10/04 09:20:05;;;;;;;;;3.00;3.00;;;;;17.10;58.37;98812.91;4918251;28;108879;-67
2022/10/04 09:23:06;;;;;;;;;3.00;3.00;;;;;17.10;58.03;98812.91;4928589;28;102179;-67
2022/10/04 09:25:51;;;;;;;;;3.33;3.00;;;;;17.10;58.01;98823.84;4944604;28;102287;-67
2022/10/04 09:29:03;;;;;;;;;6.00;4.00;;;;;17.10;58.05;98824.69;4942501;28;102668;-66
2022/10/04 09:32:09;;;;;;;;;2.00;2.00;;;;;17.11;57.86;98825.53;4911422;28;108801;-67
2022/10/04 09:35:13;;;;;;;;;2.00;2.00;;;;;17.11;57.94;98822.78;4922979;28;103265;-67
2022/10/04 09:38:13;;;;;;;;;3.33;3.00;;;;;17.12;58.35;98829.88;4943081;28;102122;-66
2022/10/04 09:41:18;;;;;;;;;3.00;3.00;;;;;17.12;58.21;98829.88;4944155;28;102565;-67
2022/10/04 09:44:00;;;;;;;;;3.00;3.00;;;;;17.13;57.54;98828.84;4941645;28;108798;-67
2022/10/04 09:46:45;;;;;;;;;3.33;3.00;;;;;17.13;57.61;98834.28;4933236;28;102214;-67
2022/10/04 09:49:16;;;;;;;;;3.00;3.00;;;;;17.14;58.44;98841.44;4923413;28;102351;-67
2022/10/04 09:52:21;;;;;;;;;2.00;2.00;;;;;17.14;57.95;98844.16;4940203;28;102462;-66
2022/10/04 09:55:03;;;;;;;;;4.33;3.00;;;;;17.14;58.01;98846.91;4929356;28;108895;-67
2022/10/04 09:58:00;;;;;;;;;1.00;1.00;;;;;17.14;57.79;98844.16;4927185;28;102421;-67
2022/10/04 10:00:32;;;;;;;;;2.67;2.67;;;;;17.13;58.27;98846.06;4935065;28;102583;-67
2022/10/04 10:03:05;;;;;;;;;3.00;3.00;;;;;17.13;58.47;98857.00;4909725;28;102383;-67
2022/10/04 10:05:57;;;;;;;;;4.00;3.00;;;;;17.14;57.69;98852.34;4919992;28;104078;-67
2022/10/04 10:08:42;;;;;;;;;3.00;3.00;;;;;17.13;58.21;98861.63;4926285;28;102434;-67
2022/10/04 10:14:38;;;;;;;;;3.33;3.33;;;;;17.14;58.30;98857.81;4924141;28;102061;-67
2022/10/04 10:17:38;;;;;;;;;3.67;2.00;;;;;17.15;58.13;98854.03;4944361;28;109076;-67
2022/10/04 10:20:08;;;;;;;;;3.33;2.00;;;;;17.14;58.17;98855.94;4921187;28;102045;-67
2022/10/04 10:23:09;;;;;;;;;3.00;2.67;;;;;17.15;57.69;98856.75;4931082;28;102553;-67
2022/10/04 10:25:40;;;;;;;;;3.67;3.00;;;;;17.16;57.90;98856.50;4933709;28;102216;-67
2022/10/04 10:28:41;;;;;;;;;3.00;2.33;;;;;17.17;58.60;98857.34;4936120;28;108955;-67
2022/10/04 10:31:45;;;;;;;;;3.67;3.00;;;;;17.16;58.15;98853.78;4935990;28;102145;-67
2022/10/04 10:34:32;;;;;;;;;2.00;2.00;;;;;17.15;57.80;98863.06;4925074;28;102175;-66
2022/10/04 10:37:29;;;;;;;;;3.00;3.00;;;;;17.17;58.13;98862.81;4938300;28;102845;-67
2022/10/04 10:40:24;;;;;;;;;3.00;2.00;;;;;17.17;57.60;98857.34;4929654;28;108814;-67
2022/10/04 10:43:17;;;;;;;;;2.00;2.00;;;;;17.17;58.35;98862.81;4934985;28;102589;-67
2022/10/04 10:45:55;;;;;;;;;3.00;3.00;;;;;17.17;58.16;98868.28;4940534;28;102355;-66
2022/10/04 10:48:48;;;;;;;;;0.67;0.67;;;;;17.17;57.62;98863.63;4923608;28;102201;-67
2022/10/04 10:51:19;;;;;;;;;3.00;2.00;;;;;17.18;58.57;98875.41;4924614;28;108802;-67
2022/10/04 10:54:04;;;;;;;;;3.00;2.00;;;;;17.18;58.42;98876.25;4920068;28;103147;-67
2022/10/04 10:56:51;;;;;;;;;3.00;3.00;;;;;17.19;58.39;98882.53;4937960;28;102346;-67
2022/10/04 10:59:33;;;;;;;;;2.67;2.67;;;;;17.19;58.00;98877.91;4918972;28;102110;-67
2022/10/04 11:02:18;;;;;;;;;3.00;2.00;;;;;17.20;58.06;98878.75;4919809;28;104105;-67
2022/10/04 11:05:13;;;;;;;;;3.00;2.67;;;;;17.20;57.93;98879.56;4938685;28;102316;-67
2022/10/04 11:08:08;;;;;;;;;3.33;2.00;;;;;17.21;58.54;98886.69;4946612;28;102194;-67
2022/10/04 11:10:37;;;;;;;;;2.00;1.00;;;;;17.21;58.09;98883.97;4895842;28;102564;-67
2022/10/04 11:13:17;;;;;;;;;2.00;2.00;;;;;17.21;57.75;98875.75;4936818;28;104235;-67
2022/10/04 11:16:06;;;;;;;;;3.00;2.00;;;;;17.22;57.54;98877.44;4930692;28;102209;-67
2022/10/04 11:18:36;;;;;;;;;3.00;2.00;;;;;17.23;57.50;98884.56;4932660;28;102426;-67
2022/10/04 11:21:24;;;;;;;;;3.67;2.00;;;;;17.23;57.40;98884.56;4941351;28;102449;-67
2022/10/04 11:24:13;;;;;;;;;2.33;2.00;;;;;17.24;58.46;98886.25;4906560;28;108815;-68
2022/10/04 11:26:46;;;;;;;;;3.00;3.00;;;;;17.26;57.91;98883.25;4935879;28;102518;-67
2022/10/04 11:29:38;;;;;;;;;1.33;1.33;;;;;17.27;57.42;98890.38;4924910;28;102412;-67
2022/10/04 11:32:38;;;;;;;;;2.00;2.00;;;;;17.29;57.62;98888.25;4940148;28;102438;-67
2022/10/04 11:35:23;;;;;;;;;2.00;2.00;;;;;17.30;58.04;98895.38;4927582;28;108963;-67
2022/10/04 11:38:08;;;;;;;;;2.33;2.33;;;;;17.30;57.93;98898.09;4930624;28;104818;-67
2022/10/04 11:40:42;;;;;;;;;2.00;2.00;;;;;17.31;57.53;98902.50;4910278;28;106963;-67
2022/10/04 11:43:36;;;;;;;;;3.00;2.33;;;;;17.32;57.61;98895.97;4919645;28;102533;-67
2022/10/04 11:46:16;;;;;;;;;2.33;2.33;;;;;17.33;57.51;98900.38;4928863;28;108711;-67
2022/10/04 11:49:04;;;;;;;;;1.33;1.33;;;;;17.33;57.36;98893.03;4934805;28;102285;-67
2022/10/04 11:51:48;;;;;;;;;2.67;2.67;;;;;17.34;57.74;98893.81;4940882;28;102448;-67
2022/10/04 11:54:23;;;;;;;;;2.00;2.00;;;;;17.33;58.26;98883.97;4921146;28;102381;-67
2022/10/04 11:57:27;;;;;;;;;1.33;1.33;;;;;17.34;57.60;98891.91;4928456;28;104234;-67
2022/10/04 12:00:07;;;;;;;;;2.00;2.00;;;;;17.35;57.85;98895.50;4927128;28;103445;-67
2022/10/04 12:02:43;;;;;;;;;2.33;2.00;;;;;17.34;57.17;98893.81;4921633;28;102604;-67
2022/10/04 12:05:22;;;;;;;;;1.00;1.00;;;;;17.34;57.68;98897.38;4931018;28;102646;-64
2022/10/04 12:07:55;;;;;;;;;2.00;2.00;;;;;17.34;57.94;98893.81;4923516;28;104092;-66
2022/10/04 12:10:36;;;;;;;;;2.00;2.00;;;;;17.34;58.37;98886.47;4941409;28;102484;-67
2022/10/04 12:13:26;;;;;;;;;3.00;3.00;;;;;17.37;57.81;98896.09;4924665;28;102187;-67
2022/10/04 12:16:11;;;;;;;;;2.00;2.00;;;;;17.37;58.14;98890.63;4929419;28;102608;-67
2022/10/04 12:18:57;;;;;;;;;2.00;2.00;;;;;17.38;57.24;98892.31;4928050;28;109928;-67
2022/10/04 12:21:29;;;;;;;;;2.00;2.00;;;;;17.39;57.92;98893.94;4922559;28;102316;-69
2022/10/04 12:24:02;;;;;;;;;3.00;2.00;;;;;17.39;57.34;98900.25;4933856;28;102840;-67
2022/10/04 12:26:51;;;;;;;;;2.33;2.00;;;;;17.40;58.16;98895.63;4930683;28;102056;-67
2022/10/04 12:29:55;;;;;;;;;2.33;2.00;;;;;17.41;57.78;98897.28;4936382;28;109180;-67
2022/10/04 12:32:47;;;;;;;;;3.00;3.00;;;;;17.42;57.34;98896.22;4935444;28;102245;-67
2022/10/04 12:35:14;;;;;;;;;1.00;1.00;;;;;17.46;57.54;98904.78;4882536;28;102520;-67